.
WxDataArchive / Data Records for 2006-01-22
2006-01-21 January 2006 2006-01-23

Data Records for Sunday, 22 January 2006

Time	Temp	Chill	HIndex	Humid	Dewpt	 Wind 	HiWind	WindDir	Rain 	Barom 
-----	----	-----	------	-----	-----	------	------	-------	-----	----- 
00:00	24.2	24.2	24.2	92	22.2	0	0	---	0.00	30.508 
00:05	24.2	24.2	24.2	92	22.2	0	0	---	0.00	30.508 
00:10	24.2	24.2	24.2	92	22.2	0	0	---	0.00	30.508 
00:15	24.2	24.2	24.2	92	22.2	0	0	---	0.00	30.508 
00:20	24.2	24.2	24.2	92	22.2	0	0	---	0.00	30.508 
00:25	24.1	24.1	24.1	92	22.1	0	0	---	0.00	30.508 
00:30	24.1	24.1	24.1	92	22.1	0	0	---	0.00	30.507 
00:35	24.1	24.1	24.1	92	22.1	0	0	---	0.00	30.507 
00:40	23.9	23.9	23.9	92	21.9	0	0	---	0.00	30.507 
00:45	23.8	23.8	23.8	92	21.8	0	0	---	0.00	30.504 
00:50	23.8	23.8	23.8	92	21.8	0	0	---	0.00	30.504 
00:55	23.6	23.6	23.6	92	21.6	0	0	---	0.00	30.504 
01:00	23.6	23.6	23.6	92	21.6	0	0	---	0.00	30.505 
01:05	23.6	23.6	23.6	92	21.6	0	0	---	0.00	30.505 
01:10	23.5	23.5	23.5	92	21.5	0	0	---	0.00	30.505 
01:15	23.5	23.5	23.5	92	21.5	0	0	---	0.00	30.503 
01:20	23.3	23.3	23.3	92	21.3	0	0	---	0.00	30.503 
01:25	23.2	23.2	23.2	92	21.2	0	0	---	0.00	30.503 
01:30	23.0	23.0	23.0	91	20.8	0	0	---	0.00	30.509 
01:35	22.9	22.9	22.9	91	20.7	0	0	---	0.00	30.509 
01:40	22.7	22.7	22.7	91	20.5	0	0	---	0.00	30.509 
01:45	22.7	22.7	22.7	92	20.7	0	0	---	0.00	30.512 
01:50	22.7	22.7	22.7	92	20.7	0	0	---	0.00	30.512 
01:55	22.7	22.7	22.7	92	20.7	0	0	---	0.00	30.512 
02:00	22.7	22.7	22.7	92	20.7	0	0	---	0.00	30.513 
02:05	22.7	22.7	22.7	92	20.7	0	0	---	0.00	30.513 
02:10	22.5	22.5	22.5	91	20.3	0	0	---	0.00	30.513 
02:15	22.5	22.5	22.5	91	20.3	0	0	---	0.00	30.512 
02:20	22.4	22.4	22.4	91	20.2	0	0	---	0.00	30.512 
02:25	22.1	22.1	22.1	91	19.9	0	0	---	0.00	30.512 
02:30	22.1	22.1	22.1	91	19.9	0	0	---	0.00	30.515 
02:35	21.9	21.9	21.9	91	19.7	0	0	---	0.00	30.515 
02:40	21.9	21.9	21.9	91	19.7	0	0	---	0.00	30.515 
02:45	21.8	21.8	21.8	91	19.6	0	0	---	0.00	30.515 
02:50	21.8	21.8	21.8	91	19.6	0	0	---	0.00	30.515 
02:55	21.6	21.6	21.6	91	19.4	0	0	---	0.00	30.515 
03:00	21.6	21.6	21.6	91	19.4	0	0	---	0.00	30.517 
03:05	21.6	21.6	21.6	91	19.4	0	0	---	0.00	30.517 
03:10	21.6	21.6	21.6	91	19.4	0	0	---	0.00	30.517 
03:15	21.8	21.8	21.8	91	19.6	0	0	---	0.00	30.516 
03:20	21.8	21.8	21.8	91	19.6	0	0	---	0.00	30.516 
03:25	21.8	21.8	21.8	91	19.6	0	0	---	0.00	30.516 
03:30	21.9	21.9	21.9	91	19.7	0	0	---	0.00	30.513 
03:35	21.9	21.9	21.9	91	19.7	0	0	---	0.00	30.513 
03:40	21.9	21.9	21.9	91	19.7	0	0	---	0.00	30.513 
03:45	21.9	21.9	21.9	91	19.7	0	0	---	0.00	30.513 
03:50	21.9	21.9	21.9	91	19.7	0	0	---	0.00	30.513 
03:55	21.9	21.9	21.9	91	19.7	0	0	---	0.00	30.513 
04:00	21.8	21.8	21.8	91	19.6	0	0	---	0.00	30.508 
04:05	21.8	21.8	21.8	91	19.6	0	0	---	0.00	30.508 
04:10	21.6	21.6	21.6	91	19.4	0	0	---	0.00	30.508 
04:15	21.6	21.6	21.6	91	19.4	0	0	---	0.00	30.505 
04:20	21.4	21.4	21.4	91	19.2	0	0	---	0.00	30.505 
04:25	21.4	21.4	21.4	91	19.2	0	0	---	0.00	30.505 
04:30	21.4	21.4	21.4	91	19.2	0	0	---	0.00	30.507 
04:35	21.4	21.4	21.4	91	19.2	0	0	---	0.00	30.507 
04:40	21.4	21.4	21.4	91	19.2	0	0	---	0.00	30.507 
04:45	21.6	21.6	21.6	91	19.4	0	0	---	0.00	30.502 
04:50	21.8	21.8	21.8	92	19.8	0	0	---	0.00	30.502 
04:55	21.8	21.8	21.8	92	19.8	0	0	---	0.00	30.502 
05:00	21.8	21.8	21.8	92	19.8	0	0	---	0.00	30.507 
05:05	21.6	21.6	21.6	91	19.4	0	0	---	0.00	30.507 
05:10	21.4	21.4	21.4	91	19.2	0	0	---	0.00	30.507 
05:15	21.6	21.6	21.6	92	19.6	0	0	---	0.00	30.508 
05:20	21.6	21.6	21.6	92	19.6	0	0	---	0.00	30.508 
05:25	21.8	21.8	21.8	91	19.6	0	0	---	0.00	30.508 
05:30	21.9	21.9	21.9	92	19.9	0	0	---	0.00	30.507 
05:35	21.9	21.9	21.9	91	19.7	0	0	---	0.00	30.507 
05:40	21.9	21.9	21.9	91	19.7	0	0	---	0.00	30.507 
05:45	21.9	21.9	21.9	91	19.7	0	0	---	0.00	30.499 
05:50	21.9	21.9	21.9	91	19.7	0	0	---	0.00	30.499 
05:55	22.1	22.1	22.1	92	20.1	0	0	---	0.00	30.499 
06:00	22.2	22.2	22.2	92	20.2	0	0	---	0.00	30.508 
06:05	22.5	22.5	22.5	92	20.5	0	0	---	0.00	30.508 
06:10	22.7	22.7	22.7	92	20.7	0	0	---	0.00	30.508 
06:15	22.9	22.9	22.9	92	20.9	0	0	---	0.00	30.510 
06:20	22.7	22.7	22.7	92	20.7	0	0	---	0.00	30.510 
06:25	22.5	22.5	22.5	92	20.5	0	0	---	0.00	30.510 
06:30	22.5	22.5	22.5	92	20.5	0	0	---	0.00	30.514 
06:35	22.4	22.4	22.4	92	20.4	0	0	---	0.00	30.514 
06:40	22.2	22.2	22.2	91	20.0	0	0	---	0.00	30.514 
06:45	22.1	22.1	22.1	91	19.9	0	0	---	0.00	30.515 
06:50	21.9	21.9	21.9	91	19.7	0	0	---	0.00	30.515 
06:55	21.8	21.8	21.8	91	19.6	0	0	---	0.00	30.515 
07:00	21.8	21.8	21.8	91	19.6	0	0	---	0.00	30.513 
07:05	21.8	21.8	21.8	91	19.6	0	0	---	0.00	30.513 
07:10	21.6	21.6	21.6	91	19.4	0	0	---	0.00	30.513 
07:15	21.4	21.4	21.4	91	19.2	0	0	---	0.00	30.516 
07:20	21.3	21.3	21.3	91	19.1	0	0	---	0.00	30.516 
07:25	21.1	21.1	21.1	91	18.9	0	0	---	0.00	30.516 
07:30	21.1	21.1	21.1	91	18.9	0	0	---	0.00	30.506 
07:35	21.0	21.0	21.0	90	18.5	0	0	---	0.00	30.506 
07:40	20.8	20.8	20.8	90	18.3	0	0	---	0.00	30.506 
07:45	20.8	20.8	20.8	90	18.3	0	0	---	0.00	30.511 
07:50	20.6	20.6	20.6	90	18.1	0	0	---	0.00	30.511 
07:55	20.6	20.6	20.6	90	18.1	0	0	---	0.00	30.511 
08:00	20.6	20.6	20.6	91	18.4	0	0	---	0.00	30.516 
08:05	21.0	21.0	21.0	91	18.8	0	0	---	0.00	30.516 
08:10	21.1	21.1	21.1	91	18.9	0	0	---	0.00	30.516 
08:15	21.1	21.1	21.1	91	18.9	0	0	---	0.00	30.517 
08:20	21.4	21.4	21.4	91	19.2	0	1	292	0.00	30.517 
08:25	22.9	22.9	22.9	93	21.2	1	2	0	0.00	30.517 
08:30	24.2	24.2	24.2	93	22.5	1	3	90	0.00	30.502 
08:35	25.3	25.3	25.3	93	23.6	1	3	90	0.00	30.502 
08:40	25.8	25.8	25.8	93	24.1	1	2	90	0.00	30.502 
08:45	26.3	26.3	26.3	93	24.6	1	2	90	0.00	30.503 
08:50	26.6	26.6	26.6	92	24.6	1	3	90	0.00	30.503 
08:55	26.7	26.7	26.7	92	24.7	1	2	90	0.00	30.503 
09:00	26.9	26.9	26.9	92	24.9	1	3	90	0.00	30.499 
09:05	27.0	27.0	27.0	91	24.7	1	3	90	0.00	30.499 
09:10	27.2	27.2	27.2	91	24.9	1	3	90	0.00	30.499 
09:15	27.3	27.3	27.3